Flight Track Log - Related Links

Times and Time Zones

All times are in EDT time to prevent confusion due to time zone crossing. See the CLX1JS flight status page for this flight to view local times or setup timezone preferences in your user account.

Time Position Orientation Groundspeed Altitude Reporting Facility
EDT Latitude Longitude Course Direction KTS MPH feet Rate Location/Type
Wed 07:22:43 PM 47.4239 -122.3100 127° Southeast 151 174 1,200  Level Seattle Center
Wed 07:22:53 PM 47.4231 -122.3083 183° South 163 188 1,200 1,377 Level Seattle Center
Wed 07:23:44 PM 47.3800 -122.3114 174° South 163 188 2,600 1,574 Climbing Seattle Center
Wed 07:23:54 PM 47.3700 -122.3097 174° South 163 188 2,800 930 Climbing Seattle Center
Wed 07:24:55 PM 47.3178 -122.3019 146° Southeast 196 226 3,700 911 Climbing Seattle Center
Wed 07:25:46 PM 47.2725 -122.2561 96° East 263 303 4,500 968 Climbing Seattle Center
Wed 07:25:57 PM 47.2714 -122.2414 58° Northeast 270 311 4,700 2,250 Climbing Seattle Center
Wed 07:26:58 PM 47.3128 -122.1431 North 295 339 7,200 2,410 Climbing Seattle Center
Wed 07:27:59 PM 47.3919 -122.1267 360° North 299 344 9,600 1,869 Climbing Seattle Center
Wed 07:29:00 PM 47.4781 -122.1264 North 314 361 11,000 1,268 Climbing Seattle Center
Wed 07:30:02 PM 47.6058 -122.1217 North 391 450 12,200 1,854 Climbing Seattle Center
Wed 07:31:03 PM 47.7194 -122.1156 North 410 472 14,800 2,607 Climbing Seattle Center
Wed 07:32:04 PM 47.8372 -122.1028 North 422 486 17,500 2,311 Climbing Seattle Center
Wed 07:33:05 PM 47.9478 -122.0864 North 435 501 19,500 1,756 Climbing Seattle Center
Wed 07:34:07 PM 48.0747 -122.0597 17° North 466 536 21,100 1,902 Climbing Seattle Center
Wed 07:35:08 PM 48.2319 -121.9869 59° Northeast 519 597 23,400 1,869 Climbing Seattle Center
Wed 07:36:09 PM 48.3136 -121.7814 69° East 589 678 24,900 1,377 Climbing Seattle Center
Wed 07:37:10 PM 48.3733 -121.5458 70° East 608 700 26,200 1,230 Climbing Seattle Center
Wed 07:38:11 PM 48.4322 -121.2986 70° East 628 723 27,400 1,463 Climbing Seattle Center
Wed 07:39:13 PM 48.4931 -121.0506 70° East 639 735 29,200 1,854 Climbing Seattle Center
Wed 07:40:14 PM 48.5514 -120.8011 70° East 638 734 31,200 1,869 Climbing Seattle Center
Wed 07:41:15 PM 48.6108 -120.5561 71° East 631 726 33,000 885 Climbing Seattle Center
Wed 07:42:16 PM 48.6747 -120.2778 70° East 624 718 33,000 -49 Level Seattle Center
Wed 07:43:17 PM 48.7328 -120.0294 77° East 624 718 32,900  Descending Seattle Center
Wed 07:44:03 PM 48.7667 -119.8000 74° East 630 725 33,000 57 Climbing Vancouver Center
Wed 07:45:03 PM 48.8167 -119.5333 North 630 725 33,000  Level Vancouver Center
Wed 07:45:20 PM 48.8450 -119.5311 82° East 626 720 33,000  Level Seattle Center
Wed 07:46:03 PM 48.8667 -119.3000 68° East 620 713 33,000  Level Vancouver Center
Wed 07:47:03 PM 48.9333 -119.0500 72° East 620 713 33,000  Level Vancouver Center
Wed 07:48:03 PM 48.9833 -118.8167 74° East 620 713 33,000  Level Vancouver Center
Wed 07:49:03 PM 49.0333 -118.5500 74° East 630 725 33,000  Level Vancouver Center
Wed 07:50:03 PM 49.0833 -118.2833 66° East 620 713 33,000  Level Vancouver Center
Wed 07:51:03 PM 49.1500 -118.0500 73° East 620 713 33,000  Level Vancouver Center
Wed 07:52:03 PM 49.2000 -117.8000 73° East 630 725 33,000  Level Vancouver Center
Wed 07:53:03 PM 49.2500 -117.5500 73° East 620 713 33,000  Level Vancouver Center
Wed 07:54:03 PM 49.3000 -117.3000 73° East 620 713 33,000  Level Vancouver Center
Wed 07:55:03 PM 49.3500 -117.0500 74° East 620 713 33,000  Level Vancouver Center
Wed 07:56:03 PM 49.4000 -116.7833 78° East 620 713 33,000  Level Vancouver Center
Wed 07:57:03 PM 49.4333 -116.5333 73° East 620 713 33,000  Level Vancouver Center
Wed 07:58:03 PM 49.4833 -116.2833 74° East 610 702 33,000  Level Vancouver Center
Wed 07:59:03 PM 49.5333 -116.0167 77° East 610 702 33,000  Level Vancouver Center
Wed 08:00:03 PM 49.5667 -115.7833 85° East 620 713 33,000  Level Vancouver Center
Wed 08:01:03 PM 49.5833 -115.5000 78° East 620 713 33,000  Level Vancouver Center
Wed 08:02:03 PM 49.6167 -115.2500 90° East 610 702 33,000 245 Level Vancouver Center
Wed 08:02:41 PM 49.6167 -115.1500 82° East 610 702 33,400 800 Climbing Edmonton Center
Wed 08:03:03 PM 49.6333 -114.9667 77° East 610 702 33,800 951 Climbing Vancouver Center
Wed 08:04:03 PM 49.6667 -114.7333 90° East 620 713 34,700 735 Climbing Vancouver Center
Wed 08:04:41 PM 49.6667 -114.6167 84° East 610 702 35,000 184 Climbing Edmonton Center
Wed 08:05:41 PM 49.6833 -114.3833 85° East 610 702 35,000  Level Edmonton Center
Wed 08:06:41 PM 49.7000 -114.1000 79° East 600 690 35,000  Level Edmonton Center
Wed 08:07:41 PM 49.7333 -113.8333 84° East 610 702 35,000  Level Edmonton Center
Wed 08:08:41 PM 49.7500 -113.5833 84° East 610 702 35,000  Level Edmonton Center
Wed 08:09:41 PM 49.7667 -113.3167 85° East 610 702 35,000  Level Edmonton Center
Wed 08:10:41 PM 49.7833 -113.0333 77° East 610 702 35,000  Level Edmonton Center
Wed 08:11:41 PM 49.8167 -112.8000 84° East 600 690 35,000  Level Edmonton Center
Wed 08:12:41 PM 49.8333 -112.5500 84° East 610 702 35,000  Level Edmonton Center
Wed 08:13:41 PM 49.8500 -112.2833 84° East 600 690 35,000  Level Edmonton Center
Wed 08:14:41 PM 49.8667 -112.0333 84° East 600 690 35,000  Level Edmonton Center
Wed 08:15:41 PM 49.8833 -111.7667 82° East 600 690 35,000  Level Edmonton Center
Wed 08:16:32 PM 49.9000 -111.5833 90° East 600 690 35,000  Level Winnipeg Center
Wed 08:16:41 PM 49.9000 -111.5000 84° East 600 690 35,000  Level Edmonton Center
Wed 08:17:41 PM 49.9167 -111.2500 84° East 590 679 35,000  Level Edmonton Center
Wed 08:18:41 PM 49.9333 -110.9833 90° East 590 679 35,000  Level Edmonton Center
Wed 08:19:41 PM 49.9333 -110.7333 77° East 590 679 35,000  Level Edmonton Center
Wed 08:20:41 PM 49.9667 -110.5000 79° East 580 667 35,000  Level Edmonton Center
Wed 08:21:41 PM 50.0000 -110.2333 73° East 570 656 35,000  Level Edmonton Center
Wed 08:22:32 PM 50.0333 -110.0667 77° East 580 667 35,000  Level Winnipeg Center
Wed 08:23:32 PM 50.0667 -109.8333 107° East 580 667 35,000  Level Winnipeg Center
Wed 08:23:41 PM 50.0500 -109.7500 79° East 570 656 35,000  Level Edmonton Center
Wed 08:24:41 PM 50.0833 -109.4833 77° East 570 656 35,000  Level Edmonton Center
Wed 08:25:41 PM 50.1167 -109.2500 74° East 570 656 35,000  Level Edmonton Center
Wed 08:26:32 PM 50.1500 -109.0667 84° East 580 667 35,000  Level Winnipeg Center
Wed 08:27:32 PM 50.1667 -108.8333 78° East 580 667 35,000  Level Winnipeg Center
Wed 08:28:32 PM 50.2000 -108.5833 84° East 580 667 35,000  Level Winnipeg Center
Wed 08:29:32 PM 50.2167 -108.3500 79° East 570 656 35,000  Level Winnipeg Center
Wed 08:30:32 PM 50.2500 -108.0833 84° East 570 656 35,000  Level Winnipeg Center
Wed 08:31:32 PM 50.2667 -107.8333 77° East 570 656 35,000  Level Winnipeg Center
Wed 08:32:32 PM 50.3000 -107.6000 59° Northeast 560 644 35,000  Level Winnipeg Center
Wed 08:33:32 PM 50.3833 -107.3833 62° Northeast 560 644 35,000  Level Winnipeg Center
Wed 08:34:32 PM 50.4500 -107.1833 64° Northeast 560 644 35,000  Level Winnipeg Center
Wed 08:35:32 PM 50.5167 -106.9667 71° East 550 633 35,000  Level Winnipeg Center
Wed 08:36:32 PM 50.5667 -106.7333 64° Northeast 550 633 35,000  Level Winnipeg Center
Wed 08:37:32 PM 50.6333 -106.5167 90° East 550 633 35,000  Level Winnipeg Center
Wed 08:37:41 PM 50.6333 -106.4500 52° Northeast 540 621 35,000  Level Edmonton Center
Wed 08:38:32 PM 50.7000 -106.3167 62° Northeast 550 633 35,000  Level Winnipeg Center
Wed 08:39:32 PM 50.7667 -106.1167 66° East 550 633 35,000  Level Winnipeg Center
Wed 08:40:32 PM 50.8333 -105.8833 66° East 540 621 35,000  Level Winnipeg Center
Wed 08:41:32 PM 50.9000 -105.6500 64° Northeast 540 621 35,000  Level Winnipeg Center
Wed 08:42:32 PM 50.9667 -105.4333 68° East 540 621 35,000  Level Winnipeg Center
Wed 08:43:32 PM 51.0167 -105.2333 64° Northeast 540 621 35,000  Level Winnipeg Center
Wed 08:44:32 PM 51.0833 -105.0167 71° East 540 621 35,000  Level Winnipeg Center
Wed 08:45:32 PM 51.1333 -104.7833 62° Northeast 540 621 35,000  Level Winnipeg Center
Wed 08:46:32 PM 51.2000 -104.5833 65° Northeast 540 621 35,000  Level Winnipeg Center
Wed 08:47:32 PM 51.2667 -104.3500 64° Northeast 530 610 35,000  Level Winnipeg Center
Wed 08:48:32 PM 51.3333 -104.1333 70° East 530 610 35,000  Level Winnipeg Center
Wed 08:49:32 PM 51.3833 -103.9167 65° Northeast 530 610 35,000  Level Winnipeg Center
Wed 08:50:32 PM 51.4500 -103.6833 68° East 530 610 35,000  Level Winnipeg Center
Wed 08:51:32 PM 51.5000 -103.4833 70° East 530 610 35,000  Level Winnipeg Center
Wed 08:52:32 PM 51.5500 -103.2667 65° Northeast 530 610 35,000  Level Winnipeg Center
Wed 08:53:32 PM 51.6167 -103.0333 68° East 530 610 35,000  Level Winnipeg Center
Wed 08:54:32 PM 51.6667 -102.8333 69° East 530 610 35,000  Level Winnipeg Center
Wed 08:55:32 PM 51.7167 -102.6167 63° Northeast 530 610 35,000  Level Winnipeg Center
Wed 08:56:32 PM 51.7833 -102.4000 71° East 520 598 35,000  Level Winnipeg Center
Wed 08:57:32 PM 51.8333 -102.1667 69° East 520 598 35,000  Level Winnipeg Center
Wed 08:58:32 PM 51.8833 -101.9500 65° Northeast 520 598 35,000  Level Winnipeg Center
Wed 08:59:32 PM 51.9500 -101.7167 69° East 520 598 35,000  Level Winnipeg Center
Wed 09:00:32 PM 52.0000 -101.5000 68° East 520 598 35,000  Level Winnipeg Center
Wed 09:01:32 PM 52.0500 -101.3000 69° East 520 598 35,000  Level Winnipeg Center
Wed 09:02:32 PM 52.1000 -101.0833 69° East 530 610 35,000  Level Winnipeg Center
Wed 09:03:32 PM 52.1500 -100.8667 65° Northeast 530 610 35,000  Level Winnipeg Center
Wed 09:04:32 PM 52.2167 -100.6333 76° East 520 598 35,000  Level Winnipeg Center
Wed 09:05:32 PM 52.2500 -100.4167 66° East 520 598 35,000  Level Winnipeg Center
Wed 09:06:32 PM 52.3167 -100.1667 76° East 530 610 35,000  Level Winnipeg Center
Wed 09:07:32 PM 52.3500 -99.9500 69° East 520 598 35,000  Level Winnipeg Center
Wed 09:08:32 PM 52.4000 -99.7333 69° East 520 598 35,000  Level Winnipeg Center
Wed 09:09:32 PM 52.4500 -99.5167 69° East 520 598 35,000  Level Winnipeg Center
Wed 09:10:32 PM 52.5000 -99.3000 72° East 510 587 35,000  Level Winnipeg Center
Wed 09:11:32 PM 52.5500 -99.0500 66° East 510 587 35,000  Level Winnipeg Center
Wed 09:12:32 PM 52.6000 -98.8667 69° East 510 587 35,000  Level Winnipeg Center
Wed 09:13:32 PM 52.6500 -98.6500 78° East 520 598 35,000  Level Winnipeg Center
Wed 09:14:32 PM 52.6833 -98.4000 69° East 520 598 35,000  Level Winnipeg Center
Wed 09:15:32 PM 52.7333 -98.1833 69° East 510 587 35,000  Level Winnipeg Center
Wed 09:16:32 PM 52.7833 -97.9667 77° East 520 598 35,000  Level Winnipeg Center
Wed 09:17:32 PM 52.8167 -97.7333 72° East 520 598 35,000  Level Winnipeg Center
Wed 09:18:32 PM 52.8667 -97.4833 69° East 520 598 35,000  Level Winnipeg Center
Wed 09:19:32 PM 52.9167 -97.2667 76° East 520 598 35,000  Level Winnipeg Center
Wed 09:20:32 PM 52.9500 -97.0500 65° Northeast 510 587 35,000  Level Winnipeg Center
Wed 09:21:32 PM 53.0167 -96.8167 83° East 520 598 35,000  Level Winnipeg Center
Wed 09:22:32 PM 53.0333 -96.6000 71° East 520 598 35,000  Level Winnipeg Center
Wed 09:23:32 PM 53.0833 -96.3500 69° East 520 598 35,000  Level Winnipeg Center
Wed 09:24:32 PM 53.1333 -96.1333 77° East 510 587 35,000  Level Winnipeg Center
Wed 09:25:32 PM 53.1667 -95.9000 69° East 510 587 35,000  Level Winnipeg Center
Wed 09:26:32 PM 53.2167 -95.6833 72° East 510 587 35,000  Level Winnipeg Center
Wed 09:27:32 PM 53.2667 -95.4167 75° East 520 598 35,000  Level Winnipeg Center
Wed 09:28:32 PM 53.3000 -95.2000 70° East 520 598 35,000  Level Winnipeg Center
Wed 09:29:32 PM 53.3500 -94.9667 75° East 520 598 35,000  Level Winnipeg Center
Wed 09:30:32 PM 53.3833 -94.7500 76° East 520 598 35,000  Level Winnipeg Center
Wed 09:31:32 PM 53.4167 -94.5167 90° East 510 587 35,000  Level Winnipeg Center
Wed 09:31:41 PM 53.4167 -94.4333 63° Northeast 510 587 35,000  Level Edmonton Center
Wed 09:32:32 PM 53.4667 -94.2667 76° East 520 598 35,000  Level Winnipeg Center
Wed 09:33:32 PM 53.5000 -94.0333 77° East 520 598 35,000  Level Winnipeg Center
Wed 09:34:32 PM 53.5333 -93.7833 90° East 520 598 35,000  Level Winnipeg Center
Wed 09:34:41 PM 53.5333 -93.7333 76° East 520 598 35,000  Level Edmonton Center
Wed 09:35:41 PM 53.5667 -93.5000 76° East 520 598 35,000  Level Edmonton Center
Wed 09:36:41 PM 53.6000 -93.2667 77° East 520 598 35,000  Level Edmonton Center
Wed 09:37:41 PM 53.6333 -93.0167 65° Northeast 520 598 35,000  Level Edmonton Center
Wed 09:38:32 PM 53.6833 -92.8333 70° East 520 598 35,000  Level Winnipeg Center
Wed 09:39:32 PM 53.7333 -92.6000 130° Southeast 520 598 35,000  Level Winnipeg Center
Wed 09:39:41 PM 53.7000 -92.5333 63° Northeast 520 598 35,000  Level Edmonton Center
Wed 09:40:32 PM 53.7500 -92.3667 71° East 520 598 35,000  Level Winnipeg Center
Wed 09:41:32 PM 53.8000 -92.1167 83° East 520 598 35,000  Level Winnipeg Center
Wed 09:42:32 PM 53.8167 -91.8833 64° Northeast 520 598 35,000  Level Winnipeg Center
Wed 09:43:32 PM 53.8833 -91.6500 130° Southeast 530 610 35,000  Level Winnipeg Center
Wed 09:43:41 PM 53.8667 -91.6167 67° East 520 598 35,000  Level Edmonton Center
Wed 09:44:41 PM 53.9333 -91.3500 62° Northeast 530 610 35,000  Level Edmonton Center
Wed 09:45:41 PM 54.0000 -91.1333 56° Northeast 540 621 35,000  Level Edmonton Center
Wed 09:46:32 PM 54.0667 -90.9667 70° East 540 621 35,000  Level Winnipeg Center
Wed 09:47:32 PM 54.1167 -90.7333 67° East 540 621 35,000  Level Winnipeg Center
Wed 09:47:41 PM 54.1333 -90.6667 68° East 540 621 35,000  Level Edmonton Center
Wed 09:48:41 PM 54.1833 -90.4500 67° East 540 621 35,000  Level Edmonton Center
Wed 09:49:41 PM 54.2500 -90.1833 64° Northeast 540 621 35,000  Level Edmonton Center
Wed 09:50:41 PM 54.3167 -89.9500 65° Northeast 540 621 35,000  Level Edmonton Center
Wed 09:51:32 PM 54.3667 -89.7667 62° Northeast 540 621 35,000  Level Winnipeg Center
Wed 09:52:32 PM 54.4333 -89.5500 120° Southeast 540 621 35,000  Level Winnipeg Center
Wed 09:52:41 PM 54.4167 -89.5000 60° Northeast 540 621 35,000  Level Edmonton Center
Wed 09:53:41 PM 54.5000 -89.2500 58° Northeast 540 621 35,000  Level Edmonton Center
Wed 09:54:32 PM 54.5667 -89.0667 70° East 540 621 35,000  Level Winnipeg Center
Wed 09:55:32 PM 54.6167 -88.8333 65° Northeast 540 621 35,000  Level Winnipeg Center
Wed 09:56:32 PM 54.6833 -88.5833 68° East 540 621 35,000  Level Winnipeg Center
Wed 09:57:32 PM 54.7333 -88.3667 113° Southeast 530 610 35,000  Level Winnipeg Center
Wed 09:57:41 PM 54.7167 -88.3000 71° East 530 610 35,000  Level Edmonton Center
Wed 09:58:41 PM 54.7667 -88.0500 64° Northeast 530 610 35,000  Level Edmonton Center
Wed 09:59:41 PM 54.8333 -87.8167 63° Northeast 530 610 35,000  Level Edmonton Center
Wed 10:00:41 PM 54.9000 -87.5833 69° East 530 610 35,000  Level Edmonton Center
Wed 10:01:41 PM 54.9500 -87.3500 58° Northeast 530 610 35,000  Level Edmonton Center
Wed 10:02:32 PM 55.0167 -87.1667 77° East 530 610 35,000  Level Winnipeg Center
Wed 10:03:32 PM 55.0500 -86.9167 60° Northeast 540 621 35,000  Level Winnipeg Center
Wed 10:03:41 PM 55.0667 -86.8667 69° East 530 610 35,000  Level Edmonton Center
Wed 10:04:41 PM 55.1167 -86.6333 64° Northeast 530 610 35,000  Level Edmonton Center
Wed 10:05:32 PM 55.1667 -86.4500 109° East 530 610 35,000  Level Winnipeg Center
Wed 10:05:41 PM 55.1500 -86.3667 62° Northeast 530 610 35,000  Level Edmonton Center
Wed 10:06:41 PM 55.2167 -86.1500 72° East 530 610 35,000  Level Edmonton Center
Wed 10:07:41 PM 55.2667 -85.8833 68° East 530 610 35,000  Level Edmonton Center
Wed 10:08:41 PM 55.3167 -85.6667 72° East 530 610 35,000  Level Edmonton Center
Wed 10:09:41 PM 55.3667 -85.4000 68° East 530 610 35,000  Level Edmonton Center
Wed 10:11:32 PM 55.4667 -84.9667 90° East 530 610 35,000  Level Winnipeg Center
Wed 10:11:41 PM 55.4667 -84.9500 73° East 530 610 35,000  Level Edmonton Center
Wed 10:12:41 PM 55.5167 -84.6667 70° East 530 610 35,000  Level Edmonton Center
Wed 10:13:41 PM 55.5667 -84.4167 70° East 530 610 35,000  Level Edmonton Center
Wed 10:14:41 PM 55.6167 -84.1667 70° East 540 621 35,000  Level Edmonton Center
Wed 10:15:41 PM 55.6667 -83.9167 69° East 540 621 35,000  Level Edmonton Center
Wed 10:16:41 PM 55.7167 -83.6833 70° East 530 610 35,000  Level Edmonton Center
Wed 10:17:41 PM 55.7667 -83.4333 360° North 540 621 35,000  Level Edmonton Center
Wed 10:18:04 PM 55.8333 -83.4333 102° East 540 621 35,000  Level Montreal Center
Wed 10:18:41 PM 55.8000 -83.1500 64° Northeast 540 621 35,000  Level Edmonton Center
Wed 10:19:41 PM 55.8667 -82.9000 77° East 530 610 35,000  Level Edmonton Center
Wed 10:20:41 PM 55.9000 -82.6500 349° North 540 621 35,000  Level Edmonton Center
Wed 10:21:04 PM 55.9500 -82.6667 69° East 530 610 35,000  Level Montreal Center
Wed 10:22:04 PM 56.0000 -82.4333 71° East 540 621 35,000  Level Montreal Center
Wed 10:23:04 PM 56.0500 -82.1667 70° East 540 621 35,000  Level Montreal Center
Wed 10:24:04 PM 56.1000 -81.9167 96° East 540 621 35,000  Level Montreal Center
Wed 10:24:41 PM 56.0833 -81.6167 331° Northwest 540 621 35,000  Level Edmonton Center
Wed 10:25:04 PM 56.1333 -81.6667 90° East 540 621 35,000  Level Montreal Center
Wed 10:25:41 PM 56.1333 -81.3667 71° East 530 610 35,000  Level Edmonton Center
Wed 10:26:41 PM 56.1833 -81.1000 76° East 540 621 35,000  Level Edmonton Center
Wed 10:27:41 PM 56.2167 -80.8500 76° East 540 621 35,000  Level Edmonton Center
Wed 10:28:41 PM 56.2500 -80.6000 72° East 540 621 35,000  Level Edmonton Center
Wed 10:29:41 PM 56.3000 -80.3167 76° East 540 621 35,000  Level Edmonton Center
Wed 10:30:41 PM 56.3333 -80.0667 345° North 540 621 35,000  Level Edmonton Center
Wed 10:31:05 PM 56.4000 -80.1000 71° East 530 610 35,000  Level Montreal Center
Wed 10:32:05 PM 56.4500 -79.8333 102° East 540 621 35,000  Level Montreal Center
Wed 10:32:41 PM 56.4167 -79.5500 71° East 540 621 35,000  Level Edmonton Center
Wed 10:33:41 PM 56.4667 -79.2833 340° North 540 621 35,000  Level Edmonton Center
Wed 10:34:04 PM 56.5167 -79.3167 71° East 540 621 35,000  Level Montreal Center
Wed 10:35:04 PM 56.5667 -79.0500 76° East 540 621 35,000  Level Montreal Center
Wed 10:36:04 PM 56.6000 -78.8000 96° East 530 610 35,000  Level Montreal Center
Wed 10:36:41 PM 56.5833 -78.5000 345° North 540 621 35,000  Level Edmonton Center
Wed 10:37:04 PM 56.6500 -78.5333 77° East 530 610 35,000  Level Montreal Center
Wed 10:38:04 PM 56.6833 -78.2667 76° East 530 610 35,000  Level Montreal Center
Wed 10:39:04 PM 56.7167 -78.0167 72° East 540 621 35,000  Level Montreal Center
Wed 10:40:04 PM 56.7667 -77.7333 77° East 540 621 35,000  Level Montreal Center
Wed 10:41:04 PM 56.8000 -77.4667 76° East 550 633 35,000  Level Montreal Center
Wed 10:42:04 PM 56.8333 -77.2167 77° East 540 621 35,000  Level Montreal Center
Wed 10:43:04 PM 56.8667 -76.9500 74° East 540 621 35,000  Level Montreal Center
Wed 10:44:04 PM 56.9167 -76.6333 75° East 540 621 35,000  Level Montreal Center
Wed 10:45:04 PM 56.9500 -76.4000 96° East 540 621 35,000  Level Montreal Center
Wed 10:45:41 PM 56.9333 -76.1000 338° Northwest 540 621 35,000  Level Edmonton Center
Wed 10:46:04 PM 57.0000 -76.1500 77° East 530 610 35,000  Level Montreal Center
Wed 10:47:58 PM 57.0667 -75.6167 78° East 530 610 35,000  Level Montreal Center
Wed 10:48:58 PM 57.1000 -75.3333 77° East 530 610 35,000  Level Montreal Center
Wed 10:49:58 PM 57.1333 -75.0667 70° East 540 621 35,000  Level Montreal Center
Wed 10:50:58 PM 57.1833 -74.8167 72° East 540 621 35,000  Level Montreal Center
Wed 10:51:58 PM 57.2333 -74.5333 58° Northeast 540 621 35,000  Level Montreal Center
Wed 10:52:26 PM 57.2500 -74.4833 82° East 550 633 35,000  Level Gander Center
Wed 10:52:58 PM 57.2667 -74.2500 78° East 540 621 35,000  Level Montreal Center
Wed 10:53:58 PM 57.3000 -73.9667 96° East 550 633 35,000  Level Montreal Center
Wed 10:54:58 PM 57.2833 -73.6833 78° East 550 633 35,000  Level Montreal Center
Wed 10:55:58 PM 57.3167 -73.4000 84° East 550 633 35,000  Level Montreal Center
Wed 10:56:58 PM 57.3333 -73.1167 90° East 550 633 35,000  Level Montreal Center
Wed 10:57:58 PM 57.3333 -72.8500 83° East 550 633 35,000  Level Montreal Center
Wed 10:58:58 PM 57.3500 -72.6000 84° East 550 633 35,000  Level Montreal Center
Wed 10:59:58 PM 57.3667 -72.2833 90° East 550 633 35,000  Level Montreal Center
Wed 11:00:58 PM 57.3667 -72.0000 78° East 550 633 35,000  Level Montreal Center
Wed 11:01:58 PM 57.4000 -71.7167 90° East 550 633 35,000  Level Montreal Center
Wed 11:02:58 PM 57.4000 -71.4333 90° East 550 633 35,000  Level Montreal Center
Wed 11:03:58 PM 57.4000 -71.1500 84° East 550 633 35,000  Level Montreal Center
Wed 11:04:58 PM 57.4167 -70.8667 90° East 550 633 35,000  Level Montreal Center
Wed 11:05:58 PM 57.4167 -70.5833 90° East 550 633 35,000  Level Montreal Center
Wed 11:06:58 PM 57.4167 -70.3000 84° East 550 633 35,000  Level Montreal Center
Wed 11:07:58 PM 57.4333 -70.0167 84° East 550 633 35,000  Level Montreal Center
Wed 11:08:58 PM 57.4500 -69.7333 90° East 550 633 35,000  Level Montreal Center
Wed 11:09:58 PM 57.4500 -69.4167 90° East 560 644 35,000  Level Montreal Center
Wed 11:10:59 PM 57.4500 -69.1333 90° East 560 644 35,000  Level Montreal Center
Wed 11:11:59 PM 57.4500 -68.8167 90° East 560 644 35,000  Level Montreal Center
Wed 11:12:59 PM 57.4500 -68.5500 84° East 560 644 35,000  Level Montreal Center
Wed 11:13:59 PM 57.4667 -68.2500 90° East 560 644 35,000  Level Montreal Center
Wed 11:14:59 PM 57.4667 -67.9667 90° East 560 644 35,000  Level Montreal Center
Wed 11:15:59 PM 57.4667 -67.6833 90° East 560 644 35,000  Level Montreal Center
Wed 11:16:26 PM 57.4667 -67.6167 90° East 570 656 35,000  Level Gander Center
Wed 11:16:59 PM 57.4667 -67.3833 90° East 560 644 35,000  Level Montreal Center
Wed 11:17:59 PM 57.4667 -67.1000 96° East 560 644 35,000  Level Montreal Center
Wed 11:18:59 PM 57.4500 -66.8167 84° East 560 644 35,000  Level Montreal Center
Wed 11:19:59 PM 57.4667 -66.5333 90° East 560 644 35,000  Level Montreal Center
Wed 11:20:59 PM 57.4667 -66.2500 95° East 560 644 35,000  Level Montreal Center
Wed 11:21:59 PM 57.4500 -65.9333 90° East 560 644 35,000  Level Montreal Center
Wed 11:22:26 PM 57.4500 -65.8333 90° East 570 656 35,000  Level Gander Center
Wed 11:22:59 PM 57.4500 -65.6167 90° East 560 644 35,000  Level Montreal Center
Wed 11:23:59 PM 57.4500 -65.3333 90° East 570 656 35,000  Level Montreal Center
Wed 11:24:59 PM 57.4500 -65.0500 90° East 570 656 35,000  Level Montreal Center
Wed 11:25:26 PM 57.4500 -64.9667 90° East 570 656 35,000  Level Gander Center
Wed 11:25:59 PM 57.4500 -64.7333 96° East 560 644 35,000  Level Montreal Center
Wed 11:26:59 PM 57.4333 -64.4500 90° East 570 656 35,000  Level Montreal Center
Wed 11:27:59 PM 57.4333 -64.1667 90° East 570 656 35,000  Level Montreal Center
Wed 11:28:59 PM 57.4333 -63.8833 95° East 570 656 35,000  Level Montreal Center
Wed 11:29:59 PM 57.4167 -63.5667 90° East 570 656 35,000  Level Montreal Center
Wed 11:30:26 PM 57.4167 -63.4833 115° Southeast 570 656 35,000  Level Gander Center
Wed 11:30:41 PM 57.4000 -63.4167 75° East 570 656 35,000  Level Gander Center
Wed 11:30:59 PM 57.4167 -63.3000 96° East 570 656 35,000  Level Montreal Center
Wed 11:31:59 PM 57.4000 -63.0167 90° East 570 656 35,000  Level Montreal Center
Wed 11:32:26 PM 57.4000 -62.8833 97° East 570 656 35,000  Level Gander Center
Wed 11:33:26 PM 57.3833 -62.6167 96° East 570 656 35,000  Level Gander Center
Wed 11:34:26 PM 57.3667 -62.3333 90° East 570 656 35,000  Level Gander Center
Wed 11:35:26 PM 57.3667 -62.0167 122° Southeast 570 656 35,000  Level Gander Center
Wed 11:35:41 PM 57.3500 -61.9667 90° East 570 656 35,000  Level Gander Center
Wed 11:36:26 PM 57.3500 -61.7500 95° East 570 656 35,000  Level Gander Center
Wed 11:37:26 PM 57.3333 -61.4000 98° East 570 656 35,000  Level Gander Center
Wed 11:38:26 PM 57.3167 -61.1833 96° East 570 656 35,000  Level Gander Center
Wed 11:39:26 PM 57.3000 -60.8833 90° East 570 656 35,000  Level Gander Center
Wed 11:39:41 PM 57.3000 -60.8167 96° East 570 656 35,000  Level Gander Center
Wed 11:40:41 PM 57.2833 -60.5333 90° East 570 656 35,000  Level Gander Center
Wed 11:41:26 PM 57.2833 -60.3000 95° East 580 667 35,000  Level Gander Center
Wed 11:42:26 PM 57.2667 -59.9833 96° East 580 667 35,000  Level Gander Center
Wed 11:43:26 PM 57.2500 -59.7167 101° East 580 667 35,000  Level Gander Center
Wed 11:44:26 PM 57.2167 -59.4000 90° East 580 667 35,000  Level Gander Center
Wed 11:45:26 PM 57.2167 -59.1333 78° East 580 667 35,000  Level Gander Center
Wed 11:46:26 PM 57.2500 -58.8500 90° East 570 656 35,000  Level Gander Center
Wed 11:46:41 PM 57.2500 -58.7833 84° East 560 644 35,000  Level Gander Center
Wed 11:47:41 PM 57.2667 -58.5000 67° East 560 644 35,000  Level Gander Center
Wed 11:48:26 PM 57.3167 -58.2833 79° East 560 644 35,000  Level Gander Center
Wed 11:49:26 PM 57.3500 -57.9667 83° East 570 656 35,000  Level Gander Center
Wed 11:50:26 PM 57.3667 -57.7000 72° East 570 656 35,000  Level Gander Center
Wed 11:51:26 PM 57.4167 -57.4167 84° East 560 644 35,000  Level Gander Center
Wed 11:52:26 PM 57.4333 -57.1333 72° East 560 644 35,000  Level Gander Center
Wed 11:53:26 PM 57.4833 -56.8500 84° East 560 644 35,000  Level Gander Center
Wed 11:54:26 PM 57.5000 -56.5667 84° East 560 644 35,000  Level Gander Center
Wed 11:55:26 PM 57.5167 -56.2833 78° East 550 633 35,000  Level Gander Center
Wed 11:56:26 PM 57.5500 -56.0000 78° East 560 644 35,000  Level Gander Center
Wed 11:57:26 PM 57.5833 -55.7167 84° East 560 644 35,000  Level Gander Center
Wed 11:58:26 PM 57.6000 -55.4333 78° East 550 633 35,000  Level Gander Center
Wed 11:59:26 PM 57.6333 -55.1333 77° East 550 633 35,000  Level Gander Center
Thu 12:00:26 AM 57.6667 -54.8500 76° East 550 633 35,000 20 Level Gander Center
Thu 12:08:07 AM 57.8192 -52.7677 77° East  Level FlightAware Approximate
Thu 12:16:07 AM 57.9415 -50.5830 79° East  Level FlightAware Approximate
Thu 12:24:07 AM 58.0530 -48.3917 81° East  Level FlightAware Approximate
Thu 12:32:07 AM 58.3064 -46.2291 83° East  Level FlightAware Approximate
Thu 12:40:07 AM 58.5228 -44.0377 85° East  Level FlightAware Approximate
Thu 12:48:07 AM 58.7014 -41.8215 87° East  Level FlightAware Approximate
Thu 12:56:07 AM 58.8416 -39.5849 89° East  Level FlightAware Approximate
Thu 01:04:07 AM 58.9428 -37.3326 91° East  Level FlightAware Approximate
Thu 01:12:07 AM 59.0819 -35.0802 94° East  Level FlightAware Approximate
Thu 01:20:07 AM 59.1817 -32.8119 97° East  Level FlightAware Approximate
Thu 01:28:07 AM 59.2418 -30.5331 99° East  Level FlightAware Approximate
Thu 01:36:07 AM 59.0507 -28.4431 101° East  Level FlightAware Approximate
Thu 01:44:07 AM 58.9024 -26.1952 103° East  Level FlightAware Approximate
Thu 01:52:07 AM 58.7154 -23.9690 106° East  Level FlightAware Approximate
Thu 02:00:07 AM 58.4904 -21.7689 108° East  Level FlightAware Approximate
Thu 02:08:07 AM 58.9586 -19.7851 114° Southeast  Level FlightAware Approximate
Thu 02:16:07 AM 58.5323 -17.6891 116° Southeast  Level FlightAware Approximate
Thu 02:24:07 AM 58.0727 -15.6455 119° Southeast  Level FlightAware Approximate
Thu 02:32:07 AM 57.5813 -13.6556 121° Southeast  Level FlightAware Approximate
Thu 02:40:07 AM 57.0594 -11.7203 124° Southeast  Level FlightAware Approximate
Thu 02:48:07 AM 56.5033 -9.8454 127° Southeast  Level FlightAware Approximate
Thu 02:56:07 AM 55.9266 -8.0188 131° Southeast  Level FlightAware Approximate
Thu 03:04:07 AM 55.3216 -6.2493 138° Southeast  Level FlightAware Approximate
Thu 03:12:07 AM 54.6918 -4.5340 155° Southeast  Level FlightAware Approximate
Thu 03:19:12 AM 53.5829 -3.6663 134° Southeast 510 587 39,000  Level FlightAware ADS-B
Thu 03:19:27 AM 53.5586 -3.6232 133° Southeast 510 587 39,000  Level FlightAware ADS-B
Thu 03:19:44 AM 53.5316 -3.5753 134° Southeast 510 587 39,000  Level FlightAware ADS-B
Thu 03:20:00 AM 53.5051 -3.5284 134° Southeast 509 586 39,000  Level FlightAware ADS-B
Thu 03:20:19 AM 53.4742 -3.4739 134° Southeast 509 586 39,000  Level FlightAware ADS-B
Thu 03:20:35 AM 53.4497 -3.4308 134° Southeast 509 586 39,000  Level FlightAware ADS-B
Thu 03:20:51 AM 53.4226 -3.3832 134° Southeast 509 586 39,000  Level FlightAware ADS-B
Thu 03:21:12 AM 53.3884 -3.3231 134° Southeast 510 587 39,000  Level FlightAware ADS-B
Thu 03:21:30 AM 53.3605 -3.2742 134° Southeast 510 587 39,000  Level FlightAware ADS-B
Thu 03:21:46 AM 53.3333 -3.2268 134° Southeast 511 588 39,000  Level FlightAware ADS-B
Thu 03:22:02 AM 53.3081 -3.1830 134° Southeast 511 588 39,000  Level FlightAware ADS-B
Thu 03:22:17 AM 53.2835 -3.1400 134° Southeast 512 589 39,000  Level FlightAware ADS-B
Thu 03:22:33 AM 53.2566 -3.0935 134° Southeast 511 588 39,000  Level FlightAware ADS-B
Thu 03:22:55 AM 53.2207 -3.0310 134° Southeast 512 589 39,000  Level FlightAware ADS-B
Thu 03:23:11 AM 53.1946 -2.9860 134° Southeast 512 589 39,000  Level FlightAware ADS-B
Thu 03:23:43 AM 53.1427 -2.8966 134° Southeast 513 590 39,000  Level FlightAware ADS-B
Thu 03:24:02 AM 53.1109 -2.8421 134° Southeast 513 590 39,000  Level FlightAware ADS-B
Thu 03:24:19 AM 53.0836 -2.7952 134° Southeast 513 590 39,000  Level FlightAware ADS-B
Thu 03:24:52 AM 53.0291 -2.7019 134° Southeast 513 590 39,000  Level FlightAware ADS-B
Thu 03:25:08 AM 53.0021 -2.6560 134° Southeast 513 590 39,000  Level FlightAware ADS-B
Thu 03:25:23 AM 52.9767 -2.6128 134° Southeast 513 590 39,000  Level FlightAware ADS-B
Thu 03:25:48 AM 52.9366 -2.5446 134° Southeast 513 590 39,000  Level FlightAware ADS-B
Thu 03:26:03 AM 52.9106 -2.5006 134° Southeast 513 590 39,000  Level FlightAware ADS-B
Thu 03:26:19 AM 52.8841 -2.4558 134° Southeast 513 590 39,000  Level FlightAware ADS-B
Thu 03:26:40 AM 52.8493 -2.3971 134° Southeast 513 590 39,000  Level FlightAware ADS-B
Thu 03:26:56 AM 52.8233 -2.3534 134° Southeast 513 590 39,000  Level FlightAware ADS-B
Thu 03:27:19 AM 52.7856 -2.2899 135° Southeast 512 589 39,000  Level FlightAware ADS-B
Thu 03:27:34 AM 52.7605 -2.2478 135° Southeast 512 589 39,000  Level FlightAware ADS-B
Thu 03:27:52 AM 52.7315 -2.1992 135° Southeast 511 588 39,000  Level FlightAware ADS-B
Thu 03:28:07 AM 52.7056 -2.1561 135° Southeast 511 588 39,000  Level FlightAware ADS-B
Thu 03:28:24 AM 52.6784 -2.1108 135° Southeast 512 589 39,000  Level FlightAware ADS-B
Thu 03:28:39 AM 52.6529 -2.0683 135° Southeast 512 589 39,000  Level FlightAware ADS-B
Thu 03:28:55 AM 52.6265 -2.0245 135° Southeast 511 588 39,000  Level FlightAware ADS-B
Thu 03:29:10 AM 52.6010 -1.9823 135° Southeast 512 589 39,000  Level FlightAware ADS-B
Thu 03:29:25 AM 52.5759 -1.9407 135° Southeast 513 590 39,000  Level FlightAware ADS-B
Thu 03:29:41 AM 52.5503 -1.8984 135° Southeast 513 590 39,000  Level FlightAware ADS-B
Thu 03:29:56 AM 52.5249 -1.8565 135° Southeast 513 590 39,000  Level FlightAware ADS-B
Thu 03:30:11 AM 52.4994 -1.8145 135° Southeast 513 590 39,000  Level FlightAware ADS-B
Thu 03:30:27 AM 52.4727 -1.7706 135° Southeast 513 590 39,000  Level FlightAware ADS-B
Thu 03:30:43 AM 52.4466 -1.7277 135° Southeast 514 592 39,000  Level FlightAware ADS-B
Thu 03:31:01 AM 52.4164 -1.6783 135° Southeast 514 592 39,000  Level FlightAware ADS-B
Thu 03:31:17 AM 52.3894 -1.6341 135° Southeast 515 593 39,000  Level FlightAware ADS-B
Thu 03:31:35 AM 52.3591 -1.5848 135° Southeast 515 593 39,000  Level FlightAware ADS-B
Thu 03:31:53 AM 52.3288 -1.5354 135° Southeast 515 593 39,000  Level FlightAware ADS-B
Thu 03:32:11 AM 52.2975 -1.4846 134° Southeast 517 595 39,000  Level FlightAware ADS-B
Thu 03:32:30 AM 52.2659 -1.4312 130° Southeast 517 595 39,000  Level FlightAware ADS-B
Thu 03:32:46 AM 52.2424 -1.3849 126° Southeast 515 593 39,000  Level FlightAware ADS-B
Thu 03:33:05 AM 52.2162 -1.3252 122° Southeast 514 592 39,000  Level FlightAware ADS-B
Thu 03:33:20 AM 52.1971 -1.2747 121° Southeast 513 590 39,000  Level FlightAware ADS-B
Thu 03:33:38 AM 52.1757 -1.2177 121° Southeast 514 592 39,000  Level FlightAware ADS-B
Thu 03:33:53 AM 52.1569 -1.1674 121° Southeast 513 590 39,000  Level FlightAware ADS-B
Thu 03:34:09 AM 52.1375 -1.1153 122° Southeast 514 592 39,000  Level FlightAware ADS-B
Thu 03:34:25 AM 52.1174 -1.0619 121° Southeast 515 593 39,000  Level FlightAware ADS-B
Thu 03:34:40 AM 52.0985 -1.0115 121° Southeast 515 593 39,000  Level FlightAware ADS-B
Thu 03:34:56 AM 52.0795 -0.9610 122° Southeast 516 594 39,000  Level FlightAware ADS-B
Thu 03:35:11 AM 52.0604 -0.9105 121° Southeast 517 595 39,000  Level FlightAware ADS-B
Thu 03:35:26 AM 52.0415 -0.8604 122° Southeast 518 596 39,000  Level FlightAware ADS-B
Thu 03:35:44 AM 52.0195 -0.8026 122° Southeast 520 598 39,000  Level FlightAware ADS-B
Thu 03:35:59 AM 52.0002 -0.7520 122° Southeast 520 598 39,000  Level FlightAware ADS-B
Thu 03:36:16 AM 51.9793 -0.6972 122° Southeast 521 600 39,000  Level FlightAware ADS-B
Thu 03:36:31 AM 51.9599 -0.6465 122° Southeast 521 600 39,000  Level FlightAware ADS-B
Thu 03:36:46 AM 51.9401 -0.5949 122° Southeast 522 601 39,000  Level FlightAware ADS-B
Thu 03:37:03 AM 51.9192 -0.5403 122° Southeast 523 602 39,000  Level FlightAware ADS-B
Thu 03:37:19 AM 51.8988 -0.4872 122° Southeast 523 602 39,000  Level FlightAware ADS-B
Thu 03:37:35 AM 51.8785 -0.4346 122° Southeast 523 602 39,000  Level FlightAware ADS-B
Thu 03:37:51 AM 51.8578 -0.3810 122° Southeast 525 604 39,000  Level FlightAware ADS-B
Thu 03:38:06 AM 51.8383 -0.3305 122° Southeast 525 604 39,000  Level FlightAware ADS-B
Thu 03:38:21 AM 51.8188 -0.2804 122° Southeast 526 605 39,000  Level FlightAware ADS-B
Thu 03:38:37 AM 51.7991 -0.2296 122° Southeast 527 606 39,000  Level FlightAware ADS-B
Thu 03:38:52 AM 51.7788 -0.1776 122° Southeast 527 606 39,000  Level FlightAware ADS-B
Thu 03:39:09 AM 51.7572 -0.1221 122° Southeast 527 606 39,000  Level FlightAware ADS-B
Thu 03:39:24 AM 51.7376 -0.0716 122° Southeast 528 608 39,000  Level FlightAware ADS-B
Thu 03:39:40 AM 51.7173 -0.0198 122° Southeast 529 609 39,000  Level FlightAware ADS-B
Thu 03:39:55 AM 51.6978 0.0300 122° Southeast 529 609 39,000  Level FlightAware ADS-B
Thu 03:40:10 AM 51.6780 0.0802 122° Southeast 530 610 39,000  Level FlightAware ADS-B
Thu 03:40:25 AM 51.6580 0.1310 122° Southeast 530 610 39,000  Level FlightAware ADS-B
Thu 03:40:41 AM 51.6377 0.1826 122° Southeast 530 610 39,000  Level FlightAware ADS-B
Thu 03:40:56 AM 51.6177 0.2334 122° Southeast 531 611 39,000  Level FlightAware ADS-B
Thu 03:41:15 AM 51.5925 0.2972 123° Southeast 532 612 39,000  Level FlightAware ADS-B
Thu 03:41:31 AM 51.5722 0.3484 123° Southeast 532 612 39,000  Level FlightAware ADS-B
Thu 03:41:46 AM 51.5511 0.4012 123° Southeast 533 613 39,000  Level FlightAware ADS-B
Thu 03:42:03 AM 51.5288 0.4574 120° Southeast 533 613 39,000  Level FlightAware ADS-B
Thu 03:42:18 AM 51.5106 0.5089 115° Southeast 529 609 39,000  Level FlightAware ADS-B
Thu 03:42:34 AM 51.4947 0.5632 111° Southeast 524 603 39,000  Level FlightAware ADS-B
Thu 03:42:50 AM 51.4805 0.6227 107° East 521 600 39,000  Level FlightAware ADS-B
Thu 03:43:06 AM 51.4700 0.6784 106° East 517 595 39,000  Level FlightAware ADS-B
Thu 03:43:23 AM 51.4587 0.7408 106° East 518 596 39,000  Level FlightAware ADS-B
Thu 03:43:39 AM 51.4478 0.8006 106° East 518 596 39,000  Level FlightAware ADS-B
Thu 03:43:56 AM 51.4364 0.8634 106° East 518 596 39,000  Level FlightAware ADS-B
Thu 03:44:12 AM 51.4259 0.9211 106° East 518 596 39,000  Level FlightAware ADS-B
Thu 03:44:27 AM 51.4158 0.9764 106° East 518 596 39,000  Level FlightAware ADS-B
Thu 03:44:43 AM 51.4048 1.0366 106° East 518 596 39,000  Level FlightAware ADS-B
Thu 03:45:00 AM 51.3936 1.0971 106° East 519 597 39,000  Level FlightAware ADS-B
Thu 03:45:15 AM 51.3833 1.1533 107° East 519 597 39,000  Level FlightAware ADS-B
Thu 03:45:32 AM 51.3715 1.2156 109° East 521 600 39,000  Level FlightAware ADS-B
Thu 03:45:50 AM 51.3571 1.2810 112° Southeast 523 602 39,000  Level FlightAware ADS-B
Thu 03:46:07 AM 51.3422 1.3402 114° Southeast 525 604 39,000  Level FlightAware ADS-B
Thu 03:46:26 AM 51.3232 1.4088 114° Southeast 527 606 39,000  Level FlightAware ADS-B
Thu 03:46:42 AM 51.3073 1.4655 114° Southeast 528 608 39,000  Level FlightAware ADS-B
Thu 03:46:57 AM 51.2920 1.5197 114° Southeast 529 609 39,000  Level FlightAware ADS-B
Thu 03:47:59 AM 51.2296 1.7393 114° Southeast 528 608 39,000  Level FlightAware ADS-B
Thu 03:48:56 AM 51.1723 1.9404 115° Southeast 528 608 39,000  Level FlightAware ADS-B
Thu 03:49:30 AM 51.1382 2.0592 115° Southeast 526 605 39,000  Level FlightAware ADS-B
Thu 03:50:02 AM 51.1055 2.1725 115° Southeast 526 605 39,000  Level FlightAware ADS-B
Thu 03:50:33 AM 51.0746 2.2790 115° Southeast 526 605 39,000  Level FlightAware ADS-B
Thu 03:50:50 AM 51.0574 2.3384 115° Southeast 519 597 39,000  Level FlightAware ADS-B
Thu 03:51:06 AM 51.0413 2.3932 115° Southeast 515 593 39,000  Level FlightAware ADS-B
Thu 03:51:32 AM 51.0156 2.4812 115° Southeast 514 592 39,000  Level FlightAware ADS-B
Thu 03:51:48 AM 50.9998 2.5350 115° Southeast 514 592 39,000  Level FlightAware ADS-B
Thu 03:52:05 AM 50.9821 2.5952 115° Southeast 512 589 39,000  Level FlightAware ADS-B
Thu 03:52:57 AM 50.9308 2.7684 115° Southeast 507 583 39,000  Level FlightAware ADS-B
Thu 03:53:16 AM 50.9122 2.8310 115° Southeast 506 582 39,000 -982 Level FlightAware ADS-B
Thu 03:53:52 AM 50.8763 2.9514 106° East 507 583 38,100 -1,500 Descending FlightAware ADS-B
Thu 04:01:07 AM 50.5883 4.4573 131° Southeast  Level FlightAware Approximate
Thu 04:09:07 AM 49.8205 5.8320 130° Southeast  Level FlightAware Approximate
Thu 04:17:07 AM 49.6167 6.2000 37° Northeast  Level FlightAware Approximate
Thu 04:25:07 AM 50.5446 7.3053 218° Southwest  Level Estimated
Thu 04:33:07 AM 49.6167 6.2000 218° Southwest  Level FlightAware Approximate

Login

Don't have an account? Register now (free) for customized features, flight alerts, and more!